Time;durP1;ratioP1;P1;durP2;ratioP2;P2;SDS_P1;SDS_P2;PMS_P1;PMS_P2;Temp;Humidity;BMP_temperature;BMP_pressure;BME280_temperature;BME280_humidity;BME280_pressure;Samples;Min_cycle;Max_cycle;Signal;HPM_P1;HPM_P2
2021/11/23 00:00:39;;;;;;;3.98;2.10;;;;;;;1.18;62.62;99859.95;1745302;82;21035;-70
2021/11/23 00:03:06;;;;;;;3.05;1.60;;;;;;;1.19;62.70;99864.30;1709107;84;21023;-70
2021/11/23 00:05:34;;;;;;;2.47;1.25;;;;;;;1.17;62.77;99854.27;1746104;82;21082;-70
2021/11/23 00:08:00;;;;;;;2.52;1.30;;;;;;;1.18;62.66;99860.47;1730369;82;20976;-70
2021/11/23 00:10:27;;;;;;;3.10;1.40;;;;;;;1.16;62.79;99864.72;1725623;82;21090;-70
2021/11/23 00:12:54;;;;;;;1.98;1.00;;;;;;;1.16;62.80;99855.33;1726725;82;21007;-70
2021/11/23 00:15:20;;;;;;;2.47;1.02;;;;;;;1.17;62.79;99858.84;1748462;82;20999;-69
2021/11/23 00:17:47;;;;;;;2.22;0.98;;;;;;;1.16;62.72;99869.25;1702405;84;21007;-70
2021/11/23 00:20:13;;;;;;;2.35;1.00;;;;;;;1.10;62.83;99870.88;1746347;82;21039;-70
2021/11/23 00:22:40;;;;;;;3.65;1.30;;;;;;;1.09;62.90;99865.23;1739377;82;21530;-70
2021/11/23 00:25:08;;;;;;;2.37;1.35;;;;;;;1.08;62.91;99875.64;1729301;82;21534;-70
2021/11/23 00:27:34;;;;;;;6.42;1.47;;;;;;;1.05;62.95;99865.84;1736037;82;21050;-70
2021/11/23 00:30:02;;;;;;;2.87;1.15;;;;;;;1.02;62.95;99875.14;1700399;84;21070;-70
2021/11/23 00:32:29;;;;;;;2.65;1.32;;;;;;;1.00;62.99;99875.33;1746870;82;20987;-70
2021/11/23 00:34:55;;;;;;;3.37;1.27;;;;;;;0.95;63.14;99877.00;1724928;82;21135;-70
2021/11/23 00:37:22;;;;;;;4.85;1.50;;;;;;;0.93;63.17;99885.23;1727463;82;20996;-70
2021/11/23 00:39:51;;;;;;;3.58;1.52;;;;;;;0.92;63.16;99886.80;1731536;82;21095;-70
2021/11/23 00:42:18;;;;;;;3.55;1.40;;;;;;;0.89;63.34;99887.17;1737143;82;20984;-69
2021/11/23 00:44:45;;;;;;;2.77;1.17;;;;;;;0.86;63.47;99885.74;1711763;82;21099;-69
2021/11/23 00:48:15;;;;;;;1.98;1.05;;;;;;;0.86;63.61;99877.70;1808049;78;22865;-68
2021/11/23 00:50:42;;;;;;;;;;;;;;;0.80;63.72;99881.72;1746202;80;21031;-68
2021/11/23 00:53:08;;;;;;;2.50;1.22;;;;;;;0.78;63.82;99883.80;1725749;82;20481;-67
2021/11/23 00:55:35;;;;;;;7.55;2.80;;;;;;;0.72;64.04;99888.61;1724520;82;21070;-69
2021/11/23 00:58:02;;;;;;;6.95;3.42;;;;;;;0.69;64.71;99890.36;1733184;82;21070;-68
2021/11/23 01:00:30;;;;;;;8.33;3.58;;;;;;;0.66;65.65;99895.63;1744330;82;21126;-68
2021/11/23 01:02:58;;;;;;;7.22;3.27;;;;;;;0.62;66.27;99890.87;1738003;82;21046;-68
2021/11/23 01:05:26;;;;;;;7.87;3.50;;;;;;;0.61;66.77;99898.59;1742554;81;21094;-68
2021/11/23 01:07:52;;;;;;;8.00;3.80;;;;;;;0.58;67.34;99901.67;1725514;82;21038;-68
2021/11/23 01:10:19;;;;;;;;;;;;;;;0.56;67.69;99901.07;1740432;82;21027;-69
2021/11/23 01:12:45;;;;;;;11.33;5.40;;;;;;;0.54;67.94;99905.78;1741065;82;20121;-68
2021/11/23 01:15:14;;;;;;;10.35;4.53;;;;;;;0.44;68.40;99908.86;1735894;82;21051;-68
2021/11/23 01:17:40;;;;;;;11.30;4.65;;;;;;;0.40;68.59;99903.59;1723941;82;21074;-68
2021/11/23 01:20:09;;;;;;;10.50;4.45;;;;;;;0.37;68.80;99902.66;1745559;82;21502;-68
2021/11/23 01:22:36;;;;;;;10.82;4.58;;;;;;;0.30;68.89;99902.65;1729394;82;21054;-68
2021/11/23 01:25:03;;;;;;;11.85;4.35;;;;;;;0.27;69.02;99904.91;1725048;82;21075;-68
2021/11/23 01:27:30;;;;;;;8.80;4.12;;;;;;;0.24;69.11;99910.66;1752064;82;20995;-68
2021/11/23 01:29:56;;;;;;;10.68;4.17;;;;;;;0.19;69.24;99904.56;1741567;82;21043;-68
2021/11/23 01:32:23;;;;;;;9.83;4.28;;;;;;;0.12;69.37;99905.05;1748136;82;21581;-68
2021/11/23 01:34:50;;;;;;;9.40;4.33;;;;;;;0.07;69.51;99908.86;1728929;82;21102;-68
2021/11/23 01:37:16;;;;;;;6.55;3.55;;;;;;;0.04;69.61;99913.79;1740729;82;21026;-68
2021/11/23 01:39:43;;;;;;;8.75;3.92;;;;;;;-0.04;69.80;99914.78;1747861;82;21027;-67
2021/11/23 01:42:10;;;;;;;7.12;3.10;;;;;;;-0.13;70.02;99916.78;1734981;82;21070;-68
2021/11/23 01:44:37;;;;;;;6.47;3.12;;;;;;;-0.20;70.22;99922.61;1745669;82;21002;-68
2021/11/23 01:47:04;;;;;;;7.65;3.40;;;;;;;-0.26;70.42;99920.73;1731365;82;21582;-68
2021/11/23 01:49:31;;;;;;;7.28;2.92;;;;;;;-0.30;70.53;99918.64;1739624;82;21028;-68
2021/11/23 01:51:58;;;;;;;6.20;3.05;;;;;;;-0.36;70.72;99928.80;1699424;82;21117;-68
2021/11/23 01:54:24;;;;;;;8.53;3.45;;;;;;;-0.44;70.94;99928.44;1713808;82;21537;-68
2021/11/23 01:56:51;;;;;;;6.60;3.30;;;;;;;-0.47;71.06;99918.14;1717671;82;21553;-68
2021/11/23 01:59:17;;;;;;;9.03;3.80;;;;;;;-0.53;71.20;99919.73;1729106;82;21525;-67
2021/11/23 02:01:45;;;;;;;9.55;3.90;;;;;;;-0.56;71.33;99914.78;1736184;82;21083;-68
2021/11/23 02:04:30;;;;;;;7.87;4.03;;;;;;;-0.59;71.41;99919.19;1718048;82;21579;-68
2021/11/23 02:06:56;;;;;;;9.10;3.98;;;;;;;-0.64;71.55;99910.11;1730870;82;21519;-68
2021/11/23 02:09:23;;;;;;;7.42;3.75;;;;;;;-0.69;71.72;99906.68;1731915;82;21558;-67
2021/11/23 02:11:50;;;;;;;;;;;;;;;-0.73;71.80;99908.09;1722311;82;21063;-68
2021/11/23 02:14:16;;;;;;;9.90;4.10;;;;;;;-0.83;72.07;99919.63;1730855;81;20128;-68
2021/11/23 02:16:43;;;;;;;8.75;4.08;;;;;;;-0.83;72.07;99919.63;1736004;82;21431;-68
2021/11/23 02:19:10;;;;;;;9.15;3.90;;;;;;;-0.86;72.20;99917.35;1712115;82;21136;-68
2021/11/23 02:21:36;;;;;;;9.15;3.77;;;;;;;-0.88;72.22;99911.36;1733814;82;21059;-68
2021/11/23 02:24:03;;;;;;;9.58;4.28;;;;;;;-0.92;72.30;99919.44;1733727;82;21023;-68
2021/11/23 02:26:30;;;;;;;9.23;3.72;;;;;;;-0.94;72.33;99920.16;1724980;82;21126;-68
2021/11/23 02:28:57;;;;;;;13.08;5.25;;;;;;;-0.97;72.44;99918.38;1729066;82;21007;-67
2021/11/23 02:31:24;;;;;;;9.75;4.03;;;;;;;-1.02;72.54;99913.09;1704570;82;21138;-68
2021/11/23 02:33:50;;;;;;;11.18;4.60;;;;;;;-1.06;72.66;99915.00;1712032;82;21522;-68
2021/11/23 02:36:17;;;;;;;11.55;4.78;;;;;;;-1.09;72.76;99920.73;1733937;82;21586;-68
2021/11/23 02:38:46;;;;;;;8.65;4.33;;;;;;;-1.15;72.87;99917.00;1713805;82;21047;-68
2021/11/23 02:41:13;;;;;;;8.25;3.90;;;;;;;-1.18;72.96;99918.73;1716304;82;21064;-68
2021/11/23 02:43:40;;;;;;;;;;;;;;;-1.22;73.04;99916.63;1726682;82;21039;-68
2021/11/23 02:46:07;;;;;;;9.65;4.62;;;;;;;-1.25;73.19;99918.34;1722810;82;20109;-68
2021/11/23 02:48:34;;;;;;;10.25;4.15;;;;;;;-1.30;73.34;99926.09;1730541;82;21044;-70
2021/11/23 02:51:08;;;;;;;9.40;4.90;;;;;;;-1.34;73.42;99931.48;1726262;82;21047;-69
2021/11/23 02:53:32;;;;;;;10.50;4.85;;;;;;;-1.38;73.49;99924.91;1725132;82;21024;-69
2021/11/23 02:56:00;;;;;;;11.25;5.25;;;;;;;-1.42;73.53;99923.63;1739224;82;21040;-69
2021/11/23 02:58:29;;;;;;;9.53;4.47;;;;;;;-1.39;73.61;99925.91;1728447;82;21094;-69
2021/11/23 03:01:03;;;;;;;10.85;4.53;;;;;;;-1.42;73.69;99931.13;1735636;82;21032;-69
2021/11/23 03:03:31;;;;;;;11.55;5.15;;;;;;;-1.43;73.84;99925.97;1731161;82;21039;-69
2021/11/23 03:05:57;;;;;;;11.55;5.10;;;;;;;-1.46;74.02;99926.35;1729555;82;21091;-69
2021/11/23 03:08:24;;;;;;;13.32;5.12;;;;;;;-1.51;74.11;99924.23;1735090;82;21071;-69
2021/11/23 03:10:51;;;;;;;13.75;4.45;;;;;;;-1.56;74.17;99929.34;1732891;82;21012;-69
2021/11/23 03:13:18;;;;;;;9.30;4.45;;;;;;;-1.58;74.22;99928.18;1718207;82;21086;-69
2021/11/23 03:15:44;;;;;;;;;;;;;;;-1.61;74.27;99932.56;1715668;82;21067;-69
2021/11/23 03:18:11;;;;;;;11.83;4.67;;;;;;;-1.64;74.36;99938.28;1719273;82;20122;-69
2021/11/23 03:20:39;;;;;;;12.15;5.05;;;;;;;-1.72;74.53;99938.39;1734351;82;21134;-69
2021/11/23 03:23:06;;;;;;;12.35;4.92;;;;;;;-1.76;74.65;99948.28;1721105;82;21035;-69
2021/11/23 03:25:33;;;;;;;10.28;4.78;;;;;;;-1.78;74.77;99947.16;1712499;82;21071;-69
2021/11/23 03:28:01;;;;;;;11.95;4.67;;;;;;;-1.79;74.79;99945.49;1734296;82;21399;-69
2021/11/23 03:30:29;;;;;;;8.70;4.15;;;;;;;-1.81;74.85;99948.87;1723768;82;21072;-69
2021/11/23 03:32:57;;;;;;;10.78;4.42;;;;;;;-1.83;74.97;99948.21;1714715;82;21079;-69
2021/11/23 03:35:26;;;;;;;8.55;4.12;;;;;;;-1.90;75.02;99941.97;1714430;82;21558;-69
2021/11/23 03:37:53;;;;;;;9.53;4.72;;;;;;;-1.93;75.14;99946.84;1733993;82;21011;-70
2021/11/23 03:40:21;;;;;;;8.23;4.05;;;;;;;-1.96;75.18;99945.39;1718324;82;21063;-69
2021/11/23 03:42:48;;;;;;;9.43;4.17;;;;;;;-1.98;75.36;99945.27;1722670;82;21118;-69
2021/11/23 03:45:14;;;;;;;7.08;3.50;;;;;;;-2.01;75.46;99954.44;1734373;82;21047;-69
2021/11/23 03:47:41;;;;;;;9.13;4.42;;;;;;;-2.04;75.62;99946.81;1720915;82;21039;-68
2021/11/23 03:50:11;;;;;;;9.70;4.50;;;;;;;-2.03;75.74;99947.14;1736357;82;21126;-69
2021/11/23 03:52:38;;;;;;;8.73;4.45;;;;;;;-1.98;75.72;99946.06;1721037;82;21000;-69
2021/11/23 03:55:06;;;;;;;9.40;4.35;;;;;;;-1.91;75.63;99940.84;1735917;82;21082;-69
2021/11/23 03:57:34;;;;;;;9.58;4.30;;;;;;;-1.86;75.56;99937.91;1735566;82;21030;-69
2021/11/23 04:00:03;;;;;;;8.85;3.75;;;;;;;-1.81;75.46;99938.70;1719648;82;21051;-69
2021/11/23 04:02:31;;;;;;;9.20;4.40;;;;;;;-1.79;75.42;99925.98;1736718;81;21031;-69
2021/11/23 04:04:58;;;;;;;8.73;4.58;;;;;;;-1.75;75.40;99928.09;1726143;82;21027;-69
2021/11/23 04:07:25;;;;;;;11.38;4.50;;;;;;;-1.69;75.34;99923.83;1719497;82;21055;-69
2021/11/23 04:09:51;;;;;;;11.53;5.45;;;;;;;-1.64;75.24;99928.11;1720313;82;21047;-69
2021/11/23 04:12:19;;;;;;;12.10;5.37;;;;;;;-1.59;75.19;99927.85;1711769;82;21074;-69
2021/11/23 04:14:46;;;;;;;12.73;5.75;;;;;;;-1.56;75.08;99920.80;1712887;82;21546;-69
2021/11/23 04:17:13;;;;;;;13.72;6.22;;;;;;;-1.51;75.02;99921.57;1720903;82;21518;-69
2021/11/23 04:19:41;;;;;;;10.32;5.37;;;;;;;-1.52;74.99;99916.73;1731302;82;21530;-69
2021/11/23 04:22:07;;;;;;;10.03;4.75;;;;;;;-1.44;74.93;99921.12;1711990;82;21677;-69
2021/11/23 04:24:34;;;;;;;12.35;5.33;;;;;;;-1.40;74.90;99920.24;1736024;82;21020;-71
2021/11/23 04:27:01;;;;;;;16.17;5.83;;;;;;;-1.41;74.86;99911.40;1723312;82;21043;-69
2021/11/23 04:29:27;;;;;;;;;;;;;;;-1.39;74.84;99912.56;1725054;82;21080;-70
2021/11/23 04:31:53;;;;;;;11.35;4.78;;;;;;;-1.39;74.80;99908.05;1723001;82;20134;-69
2021/11/23 04:34:20;;;;;;;10.38;5.03;;;;;;;-1.45;74.87;99888.77;1720989;82;21019;-69
2021/11/23 04:36:46;;;;;;;11.48;5.70;;;;;;;-1.45;74.81;99896.77;1733716;82;21118;-68
2021/11/23 04:39:14;;;;;;;11.68;5.53;;;;;;;-1.46;74.83;99895.14;1709614;84;21106;-70
2021/11/23 04:41:41;;;;;;;10.75;4.83;;;;;;;-1.47;74.83;99892.65;1725856;82;21099;-70
2021/11/23 04:44:08;;;;;;;11.08;5.03;;;;;;;-1.46;74.77;99876.95;1737189;82;20988;-65
2021/11/23 04:46:35;;;;;;;;;;;;;;;-1.50;74.63;99871.17;1741333;82;21044;-66
2021/11/23 04:49:02;;;;;;;12.47;5.17;;;;;;;-1.55;74.53;99876.23;1715362;81;20105;-65
2021/11/23 04:51:29;;;;;;;12.45;6.37;;;;;;;-1.63;74.54;99877.19;1723398;82;21975;-66
2021/11/23 04:53:56;;;;;;;16.77;7.62;;;;;;;-1.65;74.53;99871.22;1729390;82;22433;-65
2021/11/23 04:56:22;;;;;;;11.65;5.90;;;;;;;-1.66;74.39;99875.41;1717300;82;21127;-65
2021/11/23 04:58:49;;;;;;;11.53;5.42;;;;;;;-1.71;74.34;99871.99;1734547;82;21067;-65
2021/11/23 05:01:15;;;;;;;10.90;5.28;;;;;;;-1.73;74.33;99870.50;1717288;82;21036;-66
2021/11/23 05:03:43;;;;;;;11.88;5.62;;;;;;;-1.76;74.35;99877.06;1721741;82;21637;-65
2021/11/23 05:06:10;;;;;;;9.35;4.95;;;;;;;-1.79;74.28;99876.11;1727765;82;21091;-65
2021/11/23 05:08:38;;;;;;;11.88;5.60;;;;;;;-1.83;74.28;99872.16;1739023;81;21047;-65
2021/11/23 05:11:05;;;;;;;9.53;5.05;;;;;;;-1.90;74.40;99871.26;1724896;82;21063;-65
2021/11/23 05:13:32;;;;;;;9.63;5.05;;;;;;;-1.85;74.44;99880.04;1732549;82;21036;-65
2021/11/23 05:15:58;;;;;;;12.95;5.60;;;;;;;-1.86;74.44;99884.55;1738742;82;21106;-66
2021/11/23 05:18:25;;;;;;;9.53;5.00;;;;;;;-1.93;74.59;99900.98;1730744;82;21063;-65
2021/11/23 05:20:52;;;;;;;11.53;5.47;;;;;;;-2.02;74.97;99890.92;1724292;82;21104;-65
2021/11/23 05:23:18;;;;;;;10.23;6.00;;;;;;;-2.13;75.22;99897.27;1737333;82;20996;-66
2021/11/23 05:25:45;;;;;;;14.70;6.65;;;;;;;-2.24;75.52;99911.06;1711151;82;21055;-65
2021/11/23 05:28:11;;;;;;;12.43;5.85;;;;;;;-2.31;75.87;99911.48;1720653;82;21059;-65
2021/11/23 05:30:38;;;;;;;10.00;5.28;;;;;;;-2.37;76.21;99918.89;1727416;82;21015;-65
2021/11/23 05:33:05;;;;;;;9.30;5.60;;;;;;;-2.43;76.59;99932.44;1731911;82;21015;-66
2021/11/23 05:35:33;;;;;;;20.15;9.88;;;;;;;-2.48;77.00;99928.68;1719628;82;21099;-65
2021/11/23 05:37:59;;;;;;;27.80;10.28;;;;;;;-2.55;77.20;99918.73;1720509;82;21047;-65
2021/11/23 05:40:25;;;;;;;27.20;11.63;;;;;;;-2.51;77.33;99933.84;1726443;82;21063;-66
2021/11/23 05:42:52;;;;;;;;;;;;;;;-2.51;77.47;99940.02;1712429;84;21082;-66
2021/11/23 05:45:18;;;;;;;26.97;12.25;;;;;;;-2.51;77.68;99938.68;1715704;82;20131;-66
2021/11/23 05:47:45;;;;;;;27.10;11.45;;;;;;;-2.55;77.92;99945.38;1726597;82;21095;-65
2021/11/23 05:50:11;;;;;;;19.45;8.65;;;;;;;-2.53;77.98;99955.37;1734907;82;21078;-65
2021/11/23 05:52:39;;;;;;;20.77;9.95;;;;;;;-2.53;78.02;99958.04;1739144;82;21067;-66
2021/11/23 05:55:06;;;;;;;;;;;;;;;-2.49;78.06;99965.67;1734910;82;21051;-65
2021/11/23 05:57:32;;;;;;;22.67;10.98;;;;;;;-2.47;78.18;99964.47;1736189;82;20110;-65
2021/11/23 05:59:59;;;;;;;;;;;;;;;-2.48;78.40;99960.67;1741929;82;21158;-66
2021/11/23 06:02:25;;;;;;;23.18;11.05;;;;;;;-2.44;78.49;99965.96;1739025;82;20140;-66
2021/11/23 06:04:52;;;;;;;25.17;12.80;;;;;;;-2.43;78.59;99975.59;1721228;82;21067;-65
2021/11/23 06:07:18;;;;;;;24.75;12.80;;;;;;;-2.41;78.66;99970.92;1739335;82;21118;-65
2021/11/23 06:09:45;;;;;;;23.80;12.20;;;;;;;-2.40;78.70;99977.39;1739012;82;21570;-65
2021/11/23 06:12:12;;;;;;;27.62;13.30;;;;;;;-2.38;78.68;99978.55;1739560;82;21039;-64
2021/11/23 06:14:40;;;;;;;22.82;11.45;;;;;;;-2.37;78.69;99976.22;1733516;82;21008;-64
2021/11/23 06:17:08;;;;;;;22.07;12.07;;;;;;;-2.35;78.61;99979.52;1733206;82;20940;-65
2021/11/23 06:19:34;;;;;;;23.10;12.13;;;;;;;-2.34;78.53;99985.18;1731052;82;21075;-65
2021/11/23 06:22:01;;;;;;;;;;;;;;;-2.36;78.49;100000.02;1725970;82;21082;-65
2021/11/23 06:24:27;;;;;;;27.73;13.50;;;;;;;-2.36;78.56;100001.84;1738767;81;20138;-65
2021/11/23 06:26:54;;;;;;;24.95;13.93;;;;;;;-2.36;78.70;100003.18;1739255;82;20996;-65
2021/11/23 06:29:20;;;;;;;23.73;14.43;;;;;;;-2.30;78.83;99997.14;1739146;82;21043;-65
2021/11/23 06:31:46;;;;;;;26.82;14.60;;;;;;;-2.24;78.95;99995.90;1739017;82;21147;-65
2021/11/23 06:34:13;;;;;;;;;;;;;;;-2.23;78.83;99982.06;1741585;82;21082;-65
2021/11/23 06:36:39;;;;;;;27.77;13.60;;;;;;;-2.15;78.69;99988.62;1739037;81;20143;-65
2021/11/23 06:39:06;;;;;;;29.10;14.43;;;;;;;-2.19;78.71;99998.00;1739108;82;21062;-65
2021/11/23 06:41:33;;;;;;;25.32;14.30;;;;;;;-2.13;78.64;99998.12;1739208;82;21861;-65
2021/11/23 06:44:02;;;;;;;;;;;;;;;-2.04;78.53;99999.66;1741415;82;21621;-65
2021/11/23 06:46:29;;;;;;;27.20;14.03;;;;;;;-1.88;78.41;100000.50;1739024;81;20119;-65
2021/11/23 06:48:57;;;;;;;22.67;12.75;;;;;;;-1.74;78.43;100004.98;1739310;81;21585;-65
2021/11/23 06:51:24;;;;;;;23.70;12.80;;;;;;;-1.51;78.20;99999.83;1738868;82;21134;-65
2021/11/23 06:53:50;;;;;;;;;;;;;;;-1.27;77.81;99996.48;1741688;82;21040;-65
2021/11/23 06:56:16;;;;;;;19.98;10.85;;;;;;;-1.07;77.29;99999.70;1735439;82;20108;-66
2021/11/23 06:58:44;;;;;;;17.85;10.58;;;;;;;-0.92;76.88;100007.63;1709768;84;21504;-66
2021/11/23 07:01:10;;;;;;;19.57;10.03;;;;;;;-0.76;76.34;99998.03;1709674;84;21090;-67
2021/11/23 07:03:37;;;;;;;20.40;10.18;;;;;;;-0.54;76.16;100002.84;1709953;84;21022;-67
2021/11/23 07:06:03;;;;;;;23.20;11.35;;;;;;;-0.33;75.53;100002.80;1709824;84;21103;-67
2021/11/23 07:08:31;;;;;;;23.12;12.63;;;;;;;-0.18;74.75;100006.71;1709949;84;21003;-66
2021/11/23 07:10:57;;;;;;;23.22;14.05;;;;;;;-0.10;74.22;100009.21;1709606;84;21075;-65
2021/11/23 07:13:24;;;;;;;26.20;14.65;;;;;;;-0.05;73.82;100003.60;1709798;84;21083;-66
2021/11/23 07:15:52;;;;;;;25.08;14.90;;;;;;;0.00;73.43;100000.34;1709337;84;21075;-66
2021/11/23 07:18:19;;;;;;;24.37;13.95;;;;;;;0.08;73.19;100000.16;1709484;84;21458;-66
2021/11/23 07:20:46;;;;;;;26.57;14.90;;;;;;;0.21;72.79;100004.27;1712250;82;21059;-66
2021/11/23 07:23:14;;;;;;;20.05;12.85;;;;;;;0.26;72.24;100007.16;1720571;82;21028;-66
2021/11/23 07:25:40;;;;;;;25.52;13.53;;;;;;;0.32;72.16;100010.91;1734773;82;21028;-66
2021/11/23 07:28:06;;;;;;;27.98;15.23;;;;;;;0.42;71.96;100017.55;1733654;81;21075;-66
2021/11/23 07:30:33;;;;;;;;;;;;;;;0.54;71.51;100016.95;1717182;81;21044;-66
2021/11/23 07:33:00;;;;;;;23.83;14.28;;;;;;;0.64;71.23;100016.89;1749530;81;20151;-66
2021/11/23 07:35:27;;;;;;;26.07;14.65;;;;;;;0.67;71.25;100013.84;1724216;83;21045;-66
2021/11/23 07:37:53;;;;;;;22.05;12.95;;;;;;;0.80;70.78;100009.84;1724567;83;21028;-66
2021/11/23 07:40:19;;;;;;;23.75;13.55;;;;;;;0.98;70.84;100013.30;1721616;82;21054;-67
2021/11/23 07:42:46;;;;;;;22.77;11.65;;;;;;;1.33;70.86;100009.94;1709491;84;21036;-67
2021/11/23 07:45:13;;;;;;;25.25;12.75;;;;;;;1.62;70.26;100008.70;1716104;82;21591;-66
2021/11/23 07:47:40;;;;;;;20.02;10.15;;;;;;;1.88;69.90;100008.66;1720433;82;21043;-66
2021/11/23 07:50:07;;;;;;;;;;;;;;;2.12;69.26;100003.16;1741448;81;21068;-66
2021/11/23 07:52:34;;;;;;;15.43;8.10;;;;;;;2.43;69.20;99997.38;1724934;81;20129;-67
2021/11/23 07:55:03;;;;;;;13.00;7.67;;;;;;;2.67;69.32;99988.27;1709611;84;22156;-67
2021/11/23 07:57:32;;;;;;;12.35;7.60;;;;;;;3.02;68.25;99992.20;1709735;84;20983;-66
2021/11/23 07:59:59;;;;;;;13.43;6.92;;;;;;;3.10;65.93;99993.29;1710193;82;21629;-66
2021/11/23 08:02:26;;;;;;;13.00;6.80;;;;;;;3.09;65.51;99994.84;1729790;82;20972;-67
2021/11/23 08:04:52;;;;;;;12.25;7.00;;;;;;;3.29;65.06;99991.52;1722598;82;21050;-67
2021/11/23 08:07:20;;;;;;;10.32;5.87;;;;;;;3.38;64.54;99995.57;1737236;82;21058;-67
2021/11/23 08:09:47;;;;;;;8.08;5.12;;;;;;;3.44;63.67;99997.38;1738718;82;21062;-66
2021/11/23 08:12:14;;;;;;;8.35;4.78;;;;;;;3.38;63.60;99992.36;1727844;82;21003;-66
2021/11/23 08:14:41;;;;;;;6.75;4.20;;;;;;;3.43;63.50;99991.72;1710008;82;21537;-67
2021/11/23 08:17:07;;;;;;;6.72;4.17;;;;;;;3.37;63.34;99985.33;1709707;84;20995;-66
2021/11/23 08:19:36;;;;;;;8.53;4.92;;;;;;;3.25;62.76;99992.47;1736654;82;21064;-66
2021/11/23 08:22:02;;;;;;;11.68;6.00;;;;;;;3.01;62.98;99994.61;1722300;82;21510;-66
2021/11/23 08:24:29;;;;;;;8.65;5.53;;;;;;;2.80;63.25;99990.91;1737893;82;21107;-66
2021/11/23 08:26:58;;;;;;;10.78;5.70;;;;;;;2.65;63.96;99999.77;1736345;82;21035;-66
2021/11/23 08:29:25;;;;;;;10.72;6.22;;;;;;;2.59;64.33;100000.08;1735653;82;21796;-66
2021/11/23 08:31:53;;;;;;;11.10;6.28;;;;;;;2.50;64.36;99994.14;1709641;84;21035;-66
2021/11/23 08:34:21;;;;;;;12.85;6.70;;;;;;;2.32;64.40;99991.31;1721065;82;21055;-66
2021/11/23 08:36:49;;;;;;;11.75;5.78;;;;;;;2.17;65.04;99988.56;1738606;82;21121;-66
2021/11/23 08:39:15;;;;;;;9.33;5.85;;;;;;;2.06;65.75;99991.38;1738992;82;21505;-66
2021/11/23 08:41:43;;;;;;;;;;;;;;;2.00;66.16;99990.89;1741487;82;21067;-66
2021/11/23 08:44:09;;;;;;;9.25;4.95;;;;;;;1.95;66.53;99987.99;1738985;82;20131;-66
2021/11/23 08:46:36;;;;;;;10.55;4.80;;;;;;;1.89;66.81;99986.98;1735427;82;21130;-66
2021/11/23 08:49:04;;;;;;;10.10;5.10;;;;;;;1.87;67.12;99989.58;1722716;82;21533;-66
2021/11/23 08:51:34;;;;;;;10.78;5.40;;;;;;;1.84;67.29;99989.45;1722911;83;21055;-66
2021/11/23 08:53:59;;;;;;;11.90;5.60;;;;;;;1.80;67.40;99985.57;1722751;83;21581;-67
2021/11/23 08:56:29;;;;;;;11.95;5.40;;;;;;;1.79;67.33;99975.03;1735527;82;21593;-66
2021/11/23 08:58:54;;;;;;;10.80;5.42;;;;;;;1.80;67.46;99978.86;1734821;82;21110;-65
2021/11/23 09:01:24;;;;;;;10.75;5.37;;;;;;;1.81;67.45;99971.09;1729376;82;21097;-66
2021/11/23 09:03:49;;;;;;;9.85;4.62;;;;;;;1.85;67.67;99966.12;1723061;83;21063;-66
2021/11/23 09:06:16;;;;;;;8.00;3.87;;;;;;;1.89;67.71;99972.73;1723040;83;21102;-66
2021/11/23 09:08:59;;;;;;;;;;;;;;;1.91;67.70;99974.71;1731888;82;21070;-66
2021/11/23 09:11:26;;;;;;;9.73;5.00;;;;;;;1.86;67.33;99970.47;1752645;82;20107;-65
2021/11/23 09:13:56;;;;;;;9.45;4.90;;;;;;;1.68;67.58;99965.75;1753122;82;21050;-65
2021/11/23 09:16:22;;;;;;;9.13;4.15;;;;;;;1.68;68.01;99963.58;1753138;82;21557;-65
2021/11/23 09:18:49;;;;;;;12.47;5.40;;;;;;;1.71;68.38;99951.09;1751199;82;21011;-65
2021/11/23 09:21:16;;;;;;;9.88;4.80;;;;;;;1.75;68.41;99953.15;1753266;82;21031;-65
2021/11/23 09:23:43;;;;;;;9.10;4.40;;;;;;;1.77;68.22;99960.46;1753339;82;21022;-65
2021/11/23 09:26:10;;;;;;;9.10;4.83;;;;;;;1.79;68.09;99958.41;1753129;82;21058;-65
2021/11/23 09:28:37;;;;;;;;;;;;;;;1.79;68.06;99962.44;1739901;82;20975;-65
2021/11/23 09:31:04;;;;;;;10.18;4.70;;;;;;;1.83;68.28;99960.98;1723385;83;20093;-66
2021/11/23 09:33:31;;;;;;;10.85;5.35;;;;;;;1.86;68.47;99961.91;1723469;83;21051;-66
2021/11/23 09:35:58;;;;;;;;;;;;;;;1.95;68.37;99960.63;1727790;82;21032;-65
2021/11/23 09:38:25;;;;;;;9.33;4.78;;;;;;;1.99;68.16;99955.66;1723751;83;20709;-65
2021/11/23 09:40:51;;;;;;;5.97;3.33;;;;;;;1.93;67.77;99952.48;1723456;83;21594;-65
2021/11/23 09:43:18;;;;;;;5.87;2.95;;;;;;;1.90;67.86;99963.14;1726052;82;20999;-66
2021/11/23 09:45:44;;;;;;;6.42;2.77;;;;;;;1.93;67.52;99961.89;1753035;82;21043;-66
2021/11/23 09:48:11;;;;;;;6.28;3.02;;;;;;;1.91;67.46;99956.71;1753231;82;21448;-65
2021/11/23 09:50:40;;;;;;;7.45;3.15;;;;;;;1.95;67.33;99945.86;1741825;81;21024;-65
2021/11/23 09:53:07;;;;;;;7.08;3.85;;;;;;;1.96;67.24;99938.13;1739326;82;21475;-66
2021/11/23 09:55:34;;;;;;;7.00;3.50;;;;;;;2.03;67.25;99939.95;1717403;82;21012;-66
2021/11/23 09:58:00;;;;;;;6.65;3.30;;;;;;;2.11;67.04;99932.50;1724713;82;20956;-66
2021/11/23 10:00:37;;;;;;;6.62;3.40;;;;;;;2.35;66.99;99935.81;1730102;82;21055;-66
2021/11/23 10:03:14;;;;;;;7.83;3.22;;;;;;;2.60;66.09;99928.34;1739303;82;21027;-66
2021/11/23 10:05:41;;;;;;;8.20;3.27;;;;;;;2.79;65.35;99926.06;1735715;82;21096;-66
2021/11/23 10:08:16;;;;;;;6.12;3.30;;;;;;;2.96;64.69;99919.95;1738720;82;21035;-65
2021/11/23 10:10:53;;;;;;;7.33;3.58;;;;;;;2.95;63.84;99916.12;1739060;82;21017;-66
2021/11/23 10:13:20;;;;;;;5.20;3.12;;;;;;;2.93;63.93;99909.63;1738617;82;21058;-66
2021/11/23 10:15:49;;;;;;;5.15;2.83;;;;;;;2.95;63.92;99909.39;1735409;82;21090;-66
2021/11/23 10:18:23;;;;;;;6.03;3.08;;;;;;;3.01;63.66;99905.86;1717553;82;21028;-66
2021/11/23 10:20:58;;;;;;;4.37;2.70;;;;;;;2.95;63.35;99908.87;1737093;82;21561;-66
2021/11/23 10:23:38;;;;;;;5.45;2.87;;;;;;;2.92;63.26;99908.49;1738636;82;20960;-65
2021/11/23 10:26:15;;;;;;;5.10;2.85;;;;;;;2.89;63.19;99903.55;1732701;82;21043;-65
2021/11/23 10:28:44;;;;;;;6.25;2.95;;;;;;;2.89;63.03;99903.03;1739183;82;21036;-65
2021/11/23 10:31:12;;;;;;;4.75;3.08;;;;;;;2.90;63.04;99905.21;1722562;82;21567;-66
2021/11/23 10:33:39;;;;;;;7.33;3.90;;;;;;;2.96;63.30;99892.23;1720644;82;20975;-65
2021/11/23 10:36:09;;;;;;;7.53;3.98;;;;;;;3.05;63.17;99892.24;1720612;82;21051;-66
2021/11/23 10:38:38;;;;;;;6.83;4.30;;;;;;;3.18;63.16;99892.16;1713304;82;21530;-66
2021/11/23 10:41:08;;;;;;;8.25;5.03;;;;;;;3.25;62.47;99890.75;1714346;81;21625;-66
2021/11/23 10:43:37;;;;;;;6.55;3.87;;;;;;;3.23;62.37;99885.58;1721190;82;21495;-65
2021/11/23 10:46:04;;;;;;;7.87;3.80;;;;;;;3.27;62.25;99880.06;1720158;82;21022;-66
2021/11/23 10:48:30;;;;;;;;;;;;;;;3.31;61.98;99874.55;1696139;82;21004;-66
2021/11/23 10:51:07;;;;;;;8.70;4.75;;;;;;;3.43;62.47;99873.30;1736358;82;20103;-65
2021/11/23 10:53:36;;;;;;;9.50;5.00;;;;;;;3.59;62.25;99863.80;1735967;82;21051;-65
2021/11/23 10:56:12;;;;;;;8.33;4.35;;;;;;;3.79;61.56;99863.09;1721325;82;21098;-66
2021/11/23 10:58:40;;;;;;;7.22;4.20;;;;;;;3.83;61.03;99855.66;1731342;82;21023;-65
2021/11/23 11:01:10;;;;;;;7.00;4.42;;;;;;;3.80;60.41;99851.24;1736740;82;21035;-65
2021/11/23 11:03:38;;;;;;;7.08;4.45;;;;;;;3.67;60.64;99853.58;1725244;82;21503;-66
2021/11/23 11:06:06;;;;;;;8.20;4.47;;;;;;;3.60;60.53;99856.03;1735493;82;21165;-66
2021/11/23 11:08:36;;;;;;;8.70;4.67;;;;;;;3.49;61.17;99849.52;1728142;82;21055;-65
2021/11/23 11:11:05;;;;;;;10.00;4.67;;;;;;;3.51;61.42;99845.55;1717004;83;21115;-65
2021/11/23 11:13:31;;;;;;;9.18;4.90;;;;;;;3.55;61.37;99843.23;1717317;83;21518;-64
2021/11/23 11:15:59;;;;;;;8.58;4.90;;;;;;;3.56;61.58;99837.34;1717272;83;21071;-65
2021/11/23 11:18:26;;;;;;;7.10;4.80;;;;;;;3.54;61.05;99834.89;1717391;83;21141;-65
2021/11/23 11:21:00;;;;;;;7.65;4.37;;;;;;;3.49;61.29;99838.77;1717316;83;21051;-65
2021/11/23 11:23:32;;;;;;;9.40;4.78;;;;;;;3.47;61.42;99832.24;1717108;83;21071;-65
2021/11/23 11:26:18;;;;;;;6.90;4.22;;;;;;;3.49;61.53;99834.72;1717428;83;21047;-65
2021/11/23 11:28:58;;;;;;;8.08;4.92;;;;;;;3.43;61.29;99831.07;1717183;83;21012;-65
2021/11/23 11:31:42;;;;;;;8.58;5.10;;;;;;;3.30;61.23;99828.49;1717324;83;21028;-65
2021/11/23 11:34:21;;;;;;;8.20;4.90;;;;;;;3.18;61.48;99828.94;1717661;83;21027;-65
2021/11/23 11:36:50;;;;;;;7.37;5.12;;;;;;;3.12;62.03;99829.01;1717626;83;21613;-64
2021/11/23 11:39:42;;;;;;;9.30;5.35;;;;;;;3.11;62.21;99826.84;1717544;83;20956;-65